Time;durP1;ratioP1;P1;durP2;ratioP2;P2;SDS_P1;SDS_P2;PMS_P1;PMS_P2;Temp;Humidity;BMP_temperature;BMP_pressure;BME280_temperature;BME280_humidity;BME280_pressure;Samples;Min_cycle;Max_cycle;Signal;HPM_P1;HPM_P2
2021/12/28 00:01:24;;;;;;;;;4.00;1.00;;;;;;;;5039707;28;9041;-81
2021/12/28 00:03:52;;;;;;;;;1.00;1.00;;;;;;;;5038901;28;9110;-81
2021/12/28 00:06:21;;;;;;;;;2.00;2.00;;;;;;;;5043985;28;9096;-81
2021/12/28 00:08:49;;;;;;;;;6.33;1.67;;;;;;;;5038569;28;9015;-80
2021/12/28 00:11:17;;;;;;;;;1.00;1.00;;;;;;;;5040576;28;9184;-81
2021/12/28 00:13:45;;;;;;;;;1.00;1.00;;;;;;;;5038334;28;9008;-82
2021/12/28 00:16:29;;;;;;;;;2.67;2.00;;;;;;;;5041945;28;9125;-81
2021/12/28 00:18:58;;;;;;;;;1.00;1.00;;;;;;;;5042747;28;9067;-81
2021/12/28 00:21:26;;;;;;;;;2.67;2.67;;;;;;;;5034111;28;9707;-81
2021/12/28 00:23:53;;;;;;;;;3.33;2.00;;;;;;;;5037544;28;9044;-81
2021/12/28 00:26:22;;;;;;;;;2.33;2.33;;;;;;;;5042004;28;9049;-80
2021/12/28 00:28:50;;;;;;;;;2.67;1.00;;;;;;;;5040728;28;9044;-81
2021/12/28 00:31:22;;;;;;;;;3.00;1.00;;;;;;;;5039349;28;9767;-81
2021/12/28 00:33:49;;;;;;;;;1.00;1.00;;;;;;;;5043866;28;9263;-82
2021/12/28 00:36:16;;;;;;;;;1.00;1.00;;;;;;;;5039948;28;8950;-81
2021/12/28 00:38:44;;;;;;;;;0.67;0.67;;;;;;;;5033610;28;8984;-81
2021/12/28 00:41:12;;;;;;;;;1.33;1.00;;;;;;;;5040692;28;9123;-81
2021/12/28 00:43:40;;;;;;;;;1.00;1.00;;;;;;;;5039425;28;8951;-80
2021/12/28 00:46:08;;;;;;;;;1.00;1.00;;;;;;;;5043176;28;9041;-81
2021/12/28 00:48:37;;;;;;;;;0.00;0.00;;;;;;;;5041434;28;9027;-81
2021/12/28 00:51:05;;;;;;;;;0.75;0.00;;;;;;;;5039763;28;9044;-81
2021/12/28 00:53:33;;;;;;;;;1.00;1.00;;;;;;;;5037350;28;8891;-81
2021/12/28 00:56:00;;;;;;;;;1.00;1.00;;;;;;;;5032546;28;9040;-81
2021/12/28 00:58:28;;;;;;;;;2.00;1.00;;;;;;;;5043315;28;9822;-81
2021/12/28 01:00:56;;;;;;;;;0.67;0.67;;;;;;;;5037072;28;10372;-81
2021/12/28 01:03:23;;;;;;;;;2.00;0.00;;;;;;;;5043379;28;9070;-82
2021/12/28 01:05:52;;;;;;;;;0.00;0.00;;;;;;;;5041809;28;9054;-81
2021/12/28 01:08:20;;;;;;;;;0.00;0.00;;;;;;;;5049815;28;8973;-82
2021/12/28 01:10:50;;;;;;;;;0.00;0.00;;;;;;;;5052939;28;8941;-82
2021/12/28 01:13:18;;;;;;;;;1.00;0.00;;;;;;;;5051096;28;9112;-82
2021/12/28 01:15:45;;;;;;;;;0.00;0.00;;;;;;;;5049775;28;8922;-82
2021/12/28 01:18:13;;;;;;;;;0.00;0.00;;;;;;;;5045256;28;9017;-82
2021/12/28 01:20:41;;;;;;;;;2.00;0.00;;;;;;;;5046612;28;8980;-82
2021/12/28 01:23:11;;;;;;;;;0.67;0.67;;;;;;;;5035017;28;9163;-81
2021/12/28 01:25:38;;;;;;;;;1.00;1.00;;;;;;;;5045506;28;9041;-81
2021/12/28 01:28:07;;;;;;;;;3.00;1.00;;;;;;;;5046435;28;9211;-81
2021/12/28 01:30:34;;;;;;;;;2.67;1.00;;;;;;;;5045986;28;9028;-81
2021/12/28 01:33:02;;;;;;;;;2.00;1.00;;;;;;;;5046267;28;9045;-81
2021/12/28 01:35:31;;;;;;;;;0.00;0.00;;;;;;;;5046191;28;8942;-82
2021/12/28 01:38:00;;;;;;;;;1.33;0.00;;;;;;;;5043879;28;8960;-82
2021/12/28 01:40:32;;;;;;;;;2.00;0.67;;;;;;;;5041818;28;8961;-82
2021/12/28 01:43:08;;;;;;;;;0.00;0.00;;;;;;;;5043220;28;9085;-82
2021/12/28 01:45:42;;;;;;;;;1.75;0.00;;;;;;;;5044187;28;8928;-82
2021/12/28 01:48:11;;;;;;;;;0.00;0.00;;;;;;;;5045690;28;9004;-82
2021/12/28 01:50:39;;;;;;;;;0.00;0.00;;;;;;;;5044099;28;8877;-82
2021/12/28 01:53:07;;;;;;;;;0.33;0.33;;;;;;;;5037770;28;9067;-81
2021/12/28 01:55:38;;;;;;;;;0.00;0.00;;;;;;;;5046135;28;8986;-81
2021/12/28 01:58:07;;;;;;;;;0.00;0.00;;;;;;;;5045111;28;8893;-81
2021/12/28 02:00:35;;;;;;;;;0.25;0.00;;;;;;;;5044136;28;8946;-82
2021/12/28 02:03:07;;;;;;;;;0.00;0.00;;;;;;;;5039901;28;9678;-81
2021/12/28 02:05:35;;;;;;;;;2.00;0.00;;;;;;;;5045739;28;8876;-81
2021/12/28 02:08:03;;;;;;;;;0.00;0.00;;;;;;;;5042276;28;8860;-81
2021/12/28 02:10:30;;;;;;;;;0.67;0.00;;;;;;;;5041911;28;9064;-81
2021/12/28 02:12:59;;;;;;;;;0.00;0.00;;;;;;;;5036270;28;8984;-81
2021/12/28 02:15:26;;;;;;;;;0.00;0.00;;;;;;;;5041942;28;9031;-82
2021/12/28 02:17:53;;;;;;;;;0.00;0.00;;;;;;;;5045919;28;8881;-82
2021/12/28 02:20:22;;;;;;;;;0.75;0.75;;;;;;;;5044468;28;8887;-82
2021/12/28 02:22:50;;;;;;;;;0.00;0.00;;;;;;;;5045611;28;8960;-82
2021/12/28 02:25:19;;;;;;;;;0.00;0.00;;;;;;;;5035812;28;8837;-81
2021/12/28 02:27:46;;;;;;;;;0.00;0.00;;;;;;;;5045017;28;8869;-81
2021/12/28 02:30:16;;;;;;;;;2.50;0.00;;;;;;;;5044829;28;8946;-82
2021/12/28 02:32:45;;;;;;;;;0.00;0.00;;;;;;;;5031877;28;9740;-82
2021/12/28 02:35:14;;;;;;;;;0.00;0.00;;;;;;;;5042082;28;8883;-82
2021/12/28 02:37:45;;;;;;;;;1.25;0.00;;;;;;;;5040688;28;8871;-82
2021/12/28 02:40:15;;;;;;;;;0.25;0.00;;;;;;;;5036102;28;8893;-82
2021/12/28 02:42:43;;;;;;;;;0.00;0.00;;;;;;;;5045843;28;8876;-81
2021/12/28 02:45:13;;;;;;;;;0.00;0.00;;;;;;;;5037511;28;8857;-81
2021/12/28 02:47:42;;;;;;;;;0.00;0.00;;;;;;;;5045834;28;8958;-82
2021/12/28 02:50:12;;;;;;;;;0.00;0.00;;;;;;;;5044570;28;8873;-81
2021/12/28 02:52:40;;;;;;;;;0.50;0.50;;;;;;;;5044626;28;9663;-81
2021/12/28 02:55:11;;;;;;;;;0.00;0.00;;;;;;;;5044325;28;8881;-82
2021/12/28 02:57:38;;;;;;;;;0.00;0.00;;;;;;;;5044202;28;8936;-82
2021/12/28 03:00:07;;;;;;;;;0.00;0.00;;;;;;;;5039768;28;8949;-81
2021/12/28 03:02:34;;;;;;;;;0.00;0.00;;;;;;;;5044207;28;8895;-79
2021/12/28 03:05:02;;;;;;;;;0.00;0.00;;;;;;;;5042437;28;8904;-82
2021/12/28 03:07:31;;;;;;;;;0.00;0.00;;;;;;;;5041867;28;8931;-79
2021/12/28 03:09:58;;;;;;;;;0.00;0.00;;;;;;;;5044267;28;9627;-82
2021/12/28 03:12:27;;;;;;;;;0.00;0.00;;;;;;;;5043998;28;8903;-82
2021/12/28 03:14:54;;;;;;;;;0.00;0.00;;;;;;;;5042577;28;8979;-81
2021/12/28 03:17:21;;;;;;;;;0.00;0.00;;;;;;;;5045334;28;8842;-81
2021/12/28 03:19:49;;;;;;;;;0.00;0.00;;;;;;;;5037098;28;8976;-82
2021/12/28 03:22:16;;;;;;;;;0.50;0.00;;;;;;;;5044102;28;8881;-82
2021/12/28 03:24:43;;;;;;;;;0.00;0.00;;;;;;;;5037336;28;8853;-82
2021/12/28 03:27:11;;;;;;;;;0.00;0.00;;;;;;;;5043823;28;8895;-80
2021/12/28 03:29:40;;;;;;;;;1.00;0.00;;;;;;;;5042718;28;8915;-82
2021/12/28 03:32:08;;;;;;;;;0.00;0.00;;;;;;;;5043784;28;8828;-81
2021/12/28 03:34:35;;;;;;;;;0.00;0.00;;;;;;;;5043140;28;8842;-81
2021/12/28 03:37:02;;;;;;;;;1.00;1.00;;;;;;;;5042367;28;8961;-81
2021/12/28 03:39:29;;;;;;;;;0.00;0.00;;;;;;;;5039743;28;8961;-81
2021/12/28 03:41:57;;;;;;;;;1.00;1.00;;;;;;;;5037703;28;9046;-81
2021/12/28 03:44:26;;;;;;;;;0.00;0.00;;;;;;;;5043651;28;9019;-81
2021/12/28 03:46:55;;;;;;;;;0.33;0.33;;;;;;;;5042357;28;9045;-80
2021/12/28 03:49:22;;;;;;;;;1.00;1.00;;;;;;;;5042844;28;9024;-80
2021/12/28 03:51:50;;;;;;;;;1.00;1.00;;;;;;;;5044263;28;9195;-80
2021/12/28 03:54:18;;;;;;;;;1.33;1.33;;;;;;;;5040406;28;9210;-81
2021/12/28 03:56:45;;;;;;;;;1.00;1.00;;;;;;;;5044548;28;9092;-81
2021/12/28 03:59:12;;;;;;;;;1.00;1.00;;;;;;;;5042603;28;9086;-80
2021/12/28 04:01:40;;;;;;;;;3.33;2.00;;;;;;;;5037464;28;9113;-81
2021/12/28 04:04:09;;;;;;;;;0.67;0.67;;;;;;;;5043160;28;9321;-79
2021/12/28 04:06:36;;;;;;;;;1.00;1.00;;;;;;;;5044158;28;9109;-81
2021/12/28 04:09:06;;;;;;;;;1.00;1.00;;;;;;;;5039648;28;9348;-80
2021/12/28 04:11:34;;;;;;;;;1.33;1.33;;;;;;;;5032242;28;9184;-80
2021/12/28 04:14:03;;;;;;;;;2.00;2.00;;;;;;;;5044191;28;9185;-81
2021/12/28 04:16:31;;;;;;;;;1.00;1.00;;;;;;;;5040613;28;9414;-80
2021/12/28 04:18:59;;;;;;;;;1.00;1.00;;;;;;;;5043842;28;9387;-81
2021/12/28 04:21:28;;;;;;;;;1.00;1.00;;;;;;;;5033680;28;9208;-81
2021/12/28 04:23:56;;;;;;;;;0.00;0.00;;;;;;;;5042674;28;9270;-81
2021/12/28 04:26:24;;;;;;;;;1.00;1.00;;;;;;;;5039569;28;9100;-81
2021/12/28 04:28:51;;;;;;;;;1.33;1.33;;;;;;;;5043304;28;9115;-82
2021/12/28 04:31:19;;;;;;;;;0.33;0.33;;;;;;;;5040849;28;9135;-81
2021/12/28 04:33:47;;;;;;;;;1.00;1.00;;;;;;;;5042483;28;9113;-81
2021/12/28 04:36:16;;;;;;;;;1.00;1.00;;;;;;;;5040719;28;9035;-81
2021/12/28 04:38:46;;;;;;;;;0.00;0.00;;;;;;;;5042121;28;9825;-80
2021/12/28 04:41:14;;;;;;;;;0.00;0.00;;;;;;;;5040950;28;9099;-82
2021/12/28 04:43:41;;;;;;;;;0.00;0.00;;;;;;;;5041697;28;8953;-80
2021/12/28 04:46:09;;;;;;;;;0.00;0.00;;;;;;;;5042650;28;8974;-81
2021/12/28 04:48:37;;;;;;;;;0.00;0.00;;;;;;;;5037426;28;8994;-81
2021/12/28 04:51:05;;;;;;;;;0.00;0.00;;;;;;;;5040260;28;9021;-81
2021/12/28 04:53:32;;;;;;;;;0.00;0.00;;;;;;;;5035155;28;8953;-81
2021/12/28 04:56:01;;;;;;;;;0.00;0.00;;;;;;;;5041959;28;9012;-79
2021/12/28 04:58:28;;;;;;;;;0.33;0.00;;;;;;;;5043288;28;8889;-81
2021/12/28 05:00:57;;;;;;;;;1.00;0.00;;;;;;;;5039969;28;9063;-82
2021/12/28 05:03:24;;;;;;;;;0.00;0.00;;;;;;;;5037996;28;8869;-81
2021/12/28 05:05:53;;;;;;;;;0.00;0.00;;;;;;;;5038768;28;8979;-82
2021/12/28 05:08:22;;;;;;;;;0.00;0.00;;;;;;;;5036417;28;8998;-79
2021/12/28 05:10:50;;;;;;;;;0.00;0.00;;;;;;;;5042322;28;9713;-80
2021/12/28 05:13:20;;;;;;;;;0.00;0.00;;;;;;;;5044953;28;8865;-79
2021/12/28 05:15:49;;;;;;;;;0.00;0.00;;;;;;;;5042798;28;8987;-81
2021/12/28 05:18:16;;;;;;;;;0.00;0.00;;;;;;;;5035410;28;8987;-82
2021/12/28 05:20:44;;;;;;;;;0.00;0.00;;;;;;;;5039657;28;8892;-82
2021/12/28 05:23:11;;;;;;;;;0.00;0.00;;;;;;;;5037647;28;8861;-84
2021/12/28 05:25:39;;;;;;;;;0.00;0.00;;;;;;;;5038636;28;8857;-79
2021/12/28 05:28:07;;;;;;;;;1.00;0.00;;;;;;;;5035572;28;8881;-79
2021/12/28 05:30:36;;;;;;;;;0.00;0.00;;;;;;;;5040117;28;8817;-79
2021/12/28 05:33:04;;;;;;;;;0.00;0.00;;;;;;;;5043015;28;8878;-80
2021/12/28 05:35:32;;;;;;;;;0.00;0.00;;;;;;;;5038092;28;8885;-79
2021/12/28 05:37:59;;;;;;;;;0.00;0.00;;;;;;;;5036141;28;8956;-80
2021/12/28 05:40:27;;;;;;;;;0.00;0.00;;;;;;;;5032526;28;8869;-78
2021/12/28 05:42:54;;;;;;;;;8.00;7.00;;;;;;;;5042842;28;8854;-80
2021/12/28 05:45:21;;;;;;;;;2.50;0.00;;;;;;;;5042072;28;9029;-80
2021/12/28 05:47:50;;;;;;;;;0.75;0.00;;;;;;;;5033645;28;9611;-79
2021/12/28 05:50:18;;;;;;;;;0.00;0.00;;;;;;;;5042367;28;9538;-80
2021/12/28 05:52:45;;;;;;;;;1.00;0.00;;;;;;;;5042002;28;9879;-79
2021/12/28 05:55:12;;;;;;;;;0.00;0.00;;;;;;;;5040161;28;9391;-80
2021/12/28 05:57:40;;;;;;;;;0.50;0.00;;;;;;;;5045445;28;8983;-80
2021/12/28 06:00:09;;;;;;;;;0.00;0.00;;;;;;;;5044988;28;8899;-80
2021/12/28 06:02:37;;;;;;;;;1.00;1.00;;;;;;;;5045387;28;8841;-80
2021/12/28 06:05:07;;;;;;;;;1.00;0.00;;;;;;;;5040799;28;8884;-80
2021/12/28 06:07:34;;;;;;;;;1.25;0.00;;;;;;;;5043615;28;8903;-81
2021/12/28 06:10:02;;;;;;;;;0.00;0.00;;;;;;;;5044271;28;8905;-80
2021/12/28 06:12:29;;;;;;;;;1.00;0.00;;;;;;;;5046609;28;8891;-80
2021/12/28 06:14:56;;;;;;;;;0.00;0.00;;;;;;;;5044002;28;8900;-80
2021/12/28 06:17:24;;;;;;;;;0.00;0.00;;;;;;;;5036721;28;8882;-81
2021/12/28 06:19:52;;;;;;;;;1.75;0.00;;;;;;;;5046596;28;9001;-80
2021/12/28 06:22:20;;;;;;;;;0.00;0.00;;;;;;;;5030967;28;8880;-80
2021/12/28 06:24:48;;;;;;;;;0.00;0.00;;;;;;;;5043396;28;8934;-81
2021/12/28 06:27:16;;;;;;;;;0.00;0.00;;;;;;;;5045574;28;8994;-88
2021/12/28 06:29:44;;;;;;;;;0.00;0.00;;;;;;;;5047791;28;8907;-87
2021/12/28 06:32:12;;;;;;;;;0.25;0.00;;;;;;;;5035917;28;8822;-88
2021/12/28 06:34:40;;;;;;;;;0.00;0.00;;;;;;;;5040024;28;8890;-87
2021/12/28 06:37:08;;;;;;;;;0.00;0.00;;;;;;;;5044892;28;8853;-85
2021/12/28 06:39:37;;;;;;;;;0.00;0.00;;;;;;;;5036505;28;8914;-85
2021/12/28 06:42:05;;;;;;;;;0.00;0.00;;;;;;;;5043640;28;8857;-87
2021/12/28 06:44:33;;;;;;;;;0.00;0.00;;;;;;;;5040640;28;8950;-86
2021/12/28 06:47:00;;;;;;;;;0.00;0.00;;;;;;;;5047357;28;8996;-86
2021/12/28 06:49:27;;;;;;;;;1.00;0.00;;;;;;;;5043465;28;8874;-87
2021/12/28 06:51:54;;;;;;;;;0.25;0.25;;;;;;;;5038616;28;8856;-87
2021/12/28 06:54:22;;;;;;;;;0.00;0.00;;;;;;;;5040199;28;9613;-88
2021/12/28 06:56:50;;;;;;;;;0.50;0.00;;;;;;;;5039516;28;8871;-88
2021/12/28 06:59:18;;;;;;;;;0.00;0.00;;;;;;;;5036577;28;8860;-89
2021/12/28 07:01:45;;;;;;;;;1.00;0.00;;;;;;;;5046222;28;8825;-90
2021/12/28 07:04:12;;;;;;;;;0.00;0.00;;;;;;;;5046291;28;8871;-88
2021/12/28 07:06:40;;;;;;;;;0.00;0.00;;;;;;;;5046059;28;8919;-87
2021/12/28 07:09:08;;;;;;;;;0.75;0.75;;;;;;;;5047965;28;8881;-87
2021/12/28 07:11:35;;;;;;;;;0.00;0.00;;;;;;;;5045252;28;8883;-89
2021/12/28 07:14:03;;;;;;;;;0.00;0.00;;;;;;;;5045899;28;8881;-86
2021/12/28 07:16:31;;;;;;;;;0.00;0.00;;;;;;;;5034583;28;8885;-76
2021/12/28 07:18:58;;;;;;;;;0.00;0.00;;;;;;;;5036509;28;8883;-75
2021/12/28 07:21:25;;;;;;;;;0.00;0.00;;;;;;;;5037912;28;8915;-74
2021/12/28 07:23:52;;;;;;;;;0.25;0.00;;;;;;;;5039616;28;8889;-73
2021/12/28 07:26:20;;;;;;;;;0.00;0.00;;;;;;;;5042643;28;8877;-74
2021/12/28 07:28:47;;;;;;;;;1.00;0.00;;;;;;;;5039496;28;8881;-73
2021/12/28 07:31:16;;;;;;;;;0.00;0.00;;;;;;;;5044510;28;8961;-72
2021/12/28 07:33:43;;;;;;;;;0.00;0.00;;;;;;;;5044442;28;8865;-72
2021/12/28 07:36:10;;;;;;;;;1.50;0.50;;;;;;;;5043415;28;9682;-73
2021/12/28 07:38:38;;;;;;;;;1.00;1.00;;;;;;;;5043516;28;8879;-73
2021/12/28 07:41:05;;;;;;;;;0.00;0.00;;;;;;;;5037070;28;8895;-73
2021/12/28 07:43:32;;;;;;;;;3.00;0.00;;;;;;;;5039380;28;8867;-72
2021/12/28 07:46:00;;;;;;;;;0.00;0.00;;;;;;;;5041597;28;8885;-72
2021/12/28 07:48:28;;;;;;;;;0.00;0.00;;;;;;;;5044554;28;8884;-72
2021/12/28 07:50:56;;;;;;;;;0.00;0.00;;;;;;;;5036163;28;8859;-72
2021/12/28 07:53:23;;;;;;;;;0.00;0.00;;;;;;;;5035015;28;8934;-76
2021/12/28 07:55:50;;;;;;;;;3.00;0.00;;;;;;;;5035563;28;8874;-73
2021/12/28 07:58:18;;;;;;;;;0.00;0.00;;;;;;;;5033484;28;8853;-73
2021/12/28 08:00:45;;;;;;;;;0.00;0.00;;;;;;;;5043803;28;8854;-72
2021/12/28 08:03:12;;;;;;;;;0.75;0.75;;;;;;;;5041138;28;8876;-71
2021/12/28 08:05:41;;;;;;;;;0.25;0.25;;;;;;;;5043151;28;8873;-72
2021/12/28 08:08:08;;;;;;;;;0.75;0.75;;;;;;;;5043400;28;8879;-75
2021/12/28 08:10:36;;;;;;;;;0.00;0.00;;;;;;;;5042305;28;8857;-75
2021/12/28 08:13:03;;;;;;;;;0.75;0.75;;;;;;;;5043392;28;8853;-73
2021/12/28 08:15:30;;;;;;;;;0.00;0.00;;;;;;;;5043138;28;8914;-73
2021/12/28 08:17:58;;;;;;;;;1.00;1.00;;;;;;;;5043711;28;8892;-75
2021/12/28 08:20:25;;;;;;;;;1.25;0.75;;;;;;;;5042624;28;8873;-76
2021/12/28 08:22:54;;;;;;;;;1.75;1.00;;;;;;;;5044042;28;9682;-75
2021/12/28 08:25:21;;;;;;;;;1.25;0.25;;;;;;;;5042860;28;8955;-75
2021/12/28 08:27:49;;;;;;;;;3.75;0.75;;;;;;;;5043806;28;8873;-75
2021/12/28 08:30:18;;;;;;;;;1.00;1.00;;;;;;;;5043248;28;9012;-75
2021/12/28 08:32:46;;;;;;;;;2.00;2.00;;;;;;;;5039621;28;8896;-74
2021/12/28 08:35:14;;;;;;;;;2.00;0.00;;;;;;;;5041083;28;8873;-76
2021/12/28 08:37:41;;;;;;;;;1.00;0.00;;;;;;;;5033233;28;8903;-76
2021/12/28 08:40:12;;;;;;;;;2.50;1.00;;;;;;;;5041077;28;8889;-76
2021/12/28 08:42:40;;;;;;;;;3.00;1.75;;;;;;;;5037962;28;8907;-74
2021/12/28 08:45:09;;;;;;;;;1.67;1.00;;;;;;;;5035510;28;8865;-74
2021/12/28 08:47:36;;;;;;;;;0.00;0.00;;;;;;;;5042122;28;8976;-75
2021/12/28 08:50:07;;;;;;;;;4.00;2.00;;;;;;;;5041853;28;8877;-74
2021/12/28 08:52:35;;;;;;;;;1.25;0.00;;;;;;;;5039892;28;8869;-76
2021/12/28 08:55:04;;;;;;;;;2.00;0.00;;;;;;;;5038199;28;9712;-76
2021/12/28 08:57:33;;;;;;;;;1.00;0.00;;;;;;;;5032450;28;9391;-75
2021/12/28 09:00:00;;;;;;;;;0.00;0.00;;;;;;;;5039871;28;8869;-76
2021/12/28 09:02:27;;;;;;;;;2.00;0.50;;;;;;;;5038866;28;8840;-76
2021/12/28 09:04:55;;;;;;;;;0.00;0.00;;;;;;;;5036928;28;8863;-78
2021/12/28 09:07:23;;;;;;;;;3.50;1.75;;;;;;;;5036025;28;9665;-73
2021/12/28 09:09:51;;;;;;;;;2.25;1.00;;;;;;;;5040513;28;8862;-76
2021/12/28 09:12:18;;;;;;;;;0.00;0.00;;;;;;;;5040318;28;8891;-78
2021/12/28 09:14:47;;;;;;;;;2.00;0.00;;;;;;;;5041582;28;8873;-73
2021/12/28 09:17:15;;;;;;;;;2.75;0.75;;;;;;;;5039178;28;8885;-78
2021/12/28 09:19:42;;;;;;;;;2.75;2.00;;;;;;;;5043907;28;8869;-78
2021/12/28 09:22:10;;;;;;;;;0.50;0.50;;;;;;;;5043328;28;8881;-78
2021/12/28 09:24:38;;;;;;;;;0.25;0.25;;;;;;;;5043149;28;8865;-78
2021/12/28 09:27:06;;;;;;;;;2.00;0.00;;;;;;;;5044134;28;8979;-79
2021/12/28 09:29:35;;;;;;;;;2.00;0.75;;;;;;;;5044611;28;8918;-78
2021/12/28 09:32:06;;;;;;;;;1.25;0.00;;;;;;;;5045060;28;8825;-77
2021/12/28 09:34:33;;;;;;;;;0.00;0.00;;;;;;;;5045383;28;8897;-77
2021/12/28 09:37:01;;;;;;;;;1.00;1.00;;;;;;;;5038331;28;8854;-75
2021/12/28 09:39:29;;;;;;;;;0.00;0.00;;;;;;;;5040144;28;8903;-77
2021/12/28 09:41:59;;;;;;;;;0.00;0.00;;;;;;;;5038641;28;8889;-76
2021/12/28 09:44:28;;;;;;;;;2.00;0.50;;;;;;;;5047133;28;8862;-76
2021/12/28 09:46:55;;;;;;;;;3.25;1.00;;;;;;;;5045158;28;8869;-78
2021/12/28 09:49:29;;;;;;;;;2.75;0.75;;;;;;;;5047089;28;8900;-74
2021/12/28 09:51:58;;;;;;;;;0.00;0.00;;;;;;;;5045178;28;8880;-80
2021/12/28 09:54:26;;;;;;;;;4.50;2.75;;;;;;;;5047607;28;8887;-77
2021/12/28 09:56:55;;;;;;;;;2.00;0.75;;;;;;;;5046473;28;10265;-77
2021/12/28 09:59:23;;;;;;;;;1.50;0.50;;;;;;;;5046716;28;8877;-77
2021/12/28 10:01:51;;;;;;;;;0.00;0.00;;;;;;;;5045390;28;8847;-76
2021/12/28 10:04:19;;;;;;;;;2.00;0.25;;;;;;;;5047125;28;8884;-77
2021/12/28 10:06:48;;;;;;;;;0.25;0.25;;;;;;;;5047361;28;9655;-77
2021/12/28 10:09:16;;;;;;;;;6.00;2.00;;;;;;;;5046096;28;8909;-76
2021/12/28 10:11:48;;;;;;;;;1.25;1.25;;;;;;;;5047774;28;8918;-76
2021/12/28 10:14:18;;;;;;;;;2.00;1.00;;;;;;;;5045633;28;8982;-75
2021/12/28 10:16:51;;;;;;;;;0.00;0.00;;;;;;;;5046883;28;8972;-77
2021/12/28 10:19:33;;;;;;;;;1.00;0.25;;;;;;;;5046746;28;8858;-79
2021/12/28 10:22:21;;;;;;;;;3.25;1.50;;;;;;;;5048062;28;8897;-77
2021/12/28 10:24:49;;;;;;;;;4.00;1.00;;;;;;;;5046772;28;8991;-78
2021/12/28 10:27:19;;;;;;;;;5.00;2.00;;;;;;;;5046511;28;8903;-79
2021/12/28 10:29:49;;;;;;;;;4.50;2.00;;;;;;;;5047976;28;9000;-78
2021/12/28 10:32:19;;;;;;;;;2.00;2.00;;;;;;;;5044713;28;8829;-77
2021/12/28 10:34:47;;;;;;;;;2.25;2.25;;;;;;;;5046074;28;8885;-78
2021/12/28 10:37:16;;;;;;;;;2.00;2.00;;;;;;;;5031437;28;8869;-81
2021/12/28 10:39:46;;;;;;;;;1.00;1.00;;;;;;;;5044759;28;8899;-77
2021/12/28 10:42:42;;;;;;;;;8.00;3.00;;;;;;;;5046717;28;8964;-77
2021/12/28 10:45:11;;;;;;;;;2.00;2.00;;;;;;;;5044925;28;8873;-78
2021/12/28 10:47:41;;;;;;;;;3.50;2.00;;;;;;;;5047749;28;8861;-78
2021/12/28 10:50:29;;;;;;;;;7.00;3.00;;;;;;;;5040014;28;8893;-80
2021/12/28 10:53:06;;;;;;;;;1.00;1.00;;;;;;;;5038049;28;8947;-75
2021/12/28 10:55:36;;;;;;;;;3.25;1.75;;;;;;;;5043731;28;9762;-75
2021/12/28 10:58:05;;;;;;;;;3.00;3.00;;;;;;;;5044314;28;8885;-74
2021/12/28 11:00:36;;;;;;;;;4.75;2.25;;;;;;;;5044609;28;8950;-77
2021/12/28 11:03:26;;;;;;;;;2.25;2.25;;;;;;;;5036796;28;8899;-78
2021/12/28 11:05:56;;;;;;;;;6.75;4.00;;;;;;;;5043511;28;9694;-81
2021/12/28 11:08:26;;;;;;;;;8.00;2.00;;;;;;;;5045991;28;8913;-76
2021/12/28 11:10:57;;;;;;;;;7.75;2.00;;;;;;;;5039402;28;8906;-74
2021/12/28 11:13:32;;;;;;;;;6.00;4.00;;;;;;;;5046141;28;8931;-75
2021/12/28 11:16:00;;;;;;;;;6.25;2.00;;;;;;;;5041798;28;8897;-76
2021/12/28 11:18:31;;;;;;;;;2.25;2.00;;;;;;;;5042348;28;8897;-76
2021/12/28 11:21:00;;;;;;;;;3.25;2.00;;;;;;;;5037800;28;8860;-74
2021/12/28 11:23:29;;;;;;;;;3.00;3.00;;;;;;;;5039638;28;9712;-74
2021/12/28 11:26:22;;;;;;;;;7.00;1.25;;;;;;;;5039710;28;8885;-78
2021/12/28 11:28:55;;;;;;;;;4.00;2.75;;;;;;;;5039719;28;9608;-76
2021/12/28 11:31:24;;;;;;;;;2.25;2.25;;;;;;;;5052122;28;8817;-78
2021/12/28 11:34:04;;;;;;;;;3.00;1.00;;;;;;;;5041220;28;8857;-75
2021/12/28 11:36:39;;;;;;;;;6.50;3.75;;;;;;;;5031876;28;8884;-76
2021/12/28 11:39:08;;;;;;;;;4.00;2.25;;;;;;;;5032686;28;9660;-75
2021/12/28 11:41:38;;;;;;;;;11.75;2.50;;;;;;;;5034188;28;9625;-78
2021/12/28 11:44:05;;;;;;;;;3.50;2.00;;;;;;;;5037361;28;8887;-75
2021/12/28 11:46:33;;;;;;;;;3.75;2.00;;;;;;;;5039214;28;8861;-77
2021/12/28 11:49:01;;;;;;;;;3.25;3.25;;;;;;;;5053287;28;9680;-75
2021/12/28 11:51:28;;;;;;;;;12.75;3.25;;;;;;;;5041261;28;8830;-77
2021/12/28 11:54:00;;;;;;;;;3.50;3.00;;;;;;;;5040331;28;8936;-77
2021/12/28 11:56:30;;;;;;;;;5.50;2.75;;;;;;;;5035261;28;8868;-76
2021/12/28 11:59:07;;;;;;;;;5.50;3.00;;;;;;;;5039915;28;8891;-77
2021/12/28 12:01:55;;;;;;;;;5.50;3.00;;;;;;;;5039606;28;9672;-77
2021/12/28 12:04:47;;;;;;;;;4.75;2.00;;;;;;;;5038529;28;9003;-77
2021/12/28 12:07:26;;;;;;;;;4.00;3.00;;;;;;;;5030903;28;8849;-77
2021/12/28 12:10:13;;;;;;;;;7.75;2.50;;;;;;;;5052300;28;8867;-76
2021/12/28 12:12:53;;;;;;;;;2.50;2.50;;;;;;;;5034223;28;8873;-76
2021/12/28 12:15:24;;;;;;;;;7.25;3.50;;;;;;;;5032683;28;8904;-77
2021/12/28 12:17:55;;;;;;;;;4.00;2.00;;;;;;;;5038680;28;9031;-77
2021/12/28 12:20:30;;;;;;;;;2.25;2.00;;;;;;;;5038762;28;8901;-78
2021/12/28 12:23:08;;;;;;;;;3.75;1.00;;;;;;;;5040771;28;8885;-77
2021/12/28 12:26:02;;;;;;;;;6.75;2.75;;;;;;;;5034714;28;8891;-79
2021/12/28 12:28:43;;;;;;;;;6.75;3.00;;;;;;;;5038631;28;8876;-77
2021/12/28 12:31:20;;;;;;;;;2.50;2.00;;;;;;;;5042699;28;9555;-75
2021/12/28 12:33:48;;;;;;;;;7.75;3.00;;;;;;;;5037648;28;9720;-75
2021/12/28 12:36:26;;;;;;;;;7.00;3.00;;;;;;;;5038011;28;8861;-78
2021/12/28 12:38:55;;;;;;;;;8.00;3.00;;;;;;;;5036469;28;9644;-76
2021/12/28 12:41:25;;;;;;;;;2.25;2.00;;;;;;;;5034761;28;8873;-77
2021/12/28 12:43:58;;;;;;;;;2.75;1.50;;;;;;;;5038120;28;8933;-76
2021/12/28 12:46:37;;;;;;;;;6.50;2.00;;;;;;;;5036521;28;8881;-77
2021/12/28 12:49:10;;;;;;;;;2.00;2.00;;;;;;;;5035600;28;8869;-76
2021/12/28 12:51:45;;;;;;;;;4.50;1.50;;;;;;;;5038688;28;8870;-76
2021/12/28 12:54:19;;;;;;;;;2.50;2.50;;;;;;;;5034652;28;8868;-75
2021/12/28 12:57:00;;;;;;;;;3.75;2.25;;;;;;;;5036677;28;8893;-75
2021/12/28 12:59:30;;;;;;;;;4.25;2.75;;;;;;;;5034944;28;8849;-77
2021/12/28 13:02:03;;;;;;;;;4.50;1.25;;;;;;;;5037791;28;8806;-76
2021/12/28 13:04:56;;;;;;;;;4.25;3.00;;;;;;;;5044984;28;8899;-77
2021/12/28 13:07:26;;;;;;;;;2.75;2.75;;;;;;;;5038539;28;8869;-80
2021/12/28 13:10:04;;;;;;;;;2.25;2.25;;;;;;;;5038470;28;8857;-77
2021/12/28 13:12:32;;;;;;;;;1.25;1.25;;;;;;;;5045205;28;8996;-76
2021/12/28 13:15:02;;;;;;;;;4.50;3.50;;;;;;;;5037617;28;8870;-76
2021/12/28 13:17:36;;;;;;;;;2.00;1.00;;;;;;;;5025827;28;8890;-77
2021/12/28 13:20:13;;;;;;;;;2.00;0.75;;;;;;;;5043228;28;8865;-77
2021/12/28 13:22:45;;;;;;;;;3.25;1.50;;;;;;;;5036832;28;8875;-76
2021/12/28 13:25:14;;;;;;;;;4.75;4.00;;;;;;;;5043241;28;8886;-77
2021/12/28 13:27:45;;;;;;;;;4.50;2.50;;;;;;;;5041185;28;8841;-78
2021/12/28 13:30:15;;;;;;;;;2.25;2.25;;;;;;;;5040291;28;8952;-77
2021/12/28 13:32:44;;;;;;;;;3.25;2.00;;;;;;;;5041255;28;8857;-76
2021/12/28 13:35:20;;;;;;;;;5.50;3.75;;;;;;;;5038830;28;8861;-78
2021/12/28 13:37:49;;;;;;;;;2.25;2.25;;;;;;;;5040782;28;8874;-75
2021/12/28 13:40:22;;;;;;;;;4.25;2.25;;;;;;;;5042682;28;8948;-74
2021/12/28 13:43:03;;;;;;;;;2.00;0.25;;;;;;;;5043621;28;8885;-75
2021/12/28 13:45:34;;;;;;;;;1.00;1.00;;;;;;;;5040555;28;8894;-74
2021/12/28 13:48:11;;;;;;;;;1.00;1.00;;;;;;;;5043238;28;9670;-75
2021/12/28 13:50:40;;;;;;;;;2.25;1.75;;;;;;;;5041726;28;8873;-75
2021/12/28 13:53:12;;;;;;;;;4.75;3.00;;;;;;;;5043546;28;8891;-75
2021/12/28 13:55:40;;;;;;;;;1.00;1.00;;;;;;;;5043798;28;9357;-74
2021/12/28 13:58:20;;;;;;;;;2.00;2.00;;;;;;;;5044839;28;8857;-74
2021/12/28 14:00:50;;;;;;;;;2.75;1.25;;;;;;;;5041051;28;8849;-74
2021/12/28 14:03:21;;;;;;;;;4.50;2.00;;;;;;;;5043522;28;8874;-74
2021/12/28 14:05:49;;;;;;;;;3.00;1.25;;;;;;;;5040593;28;8877;-75
2021/12/28 14:08:18;;;;;;;;;3.00;2.00;;;;;;;;5033538;28;8872;-76
2021/12/28 14:10:47;;;;;;;;;4.50;2.25;;;;;;;;5032074;28;8908;-74
2021/12/28 14:13:17;;;;;;;;;3.50;3.00;;;;;;;;5041468;28;9668;-73
2021/12/28 14:15:53;;;;;;;;;3.00;3.00;;;;;;;;5040249;28;8878;-74
2021/12/28 14:18:38;;;;;;;;;1.50;1.50;;;;;;;;5043982;28;8857;-73
2021/12/28 14:21:17;;;;;;;;;3.75;0.75;;;;;;;;5037040;28;8862;-73
2021/12/28 14:23:53;;;;;;;;;1.00;0.50;;;;;;;;5040359;28;8870;-71
2021/12/28 14:26:24;;;;;;;;;4.00;1.00;;;;;;;;5042999;28;8871;-71
2021/12/28 14:28:58;;;;;;;;;6.50;2.50;;;;;;;;5042597;28;8880;-72
2021/12/28 14:31:27;;;;;;;;;6.75;2.00;;;;;;;;5034309;28;8822;-71
2021/12/28 14:33:57;;;;;;;;;2.75;1.00;;;;;;;;5040665;28;8885;-71
2021/12/28 14:36:31;;;;;;;;;3.00;2.25;;;;;;;;5044887;28;8890;-70
2021/12/28 14:39:11;;;;;;;;;3.50;2.00;;;;;;;;5040014;28;8865;-72
2021/12/28 14:41:39;;;;;;;;;2.25;0.50;;;;;;;;5041565;28;8862;-73
2021/12/28 14:44:09;;;;;;;;;4.25;2.00;;;;;;;;5041885;28;8861;-77
2021/12/28 14:46:36;;;;;;;;;3.75;2.00;;;;;;;;5039879;28;8850;-74
2021/12/28 14:49:17;;;;;;;;;3.00;1.00;;;;;;;;5042326;28;8862;-75
2021/12/28 14:51:45;;;;;;;;;2.25;1.75;;;;;;;;5035902;28;8868;-74
2021/12/28 14:54:14;;;;;;;;;4.00;2.00;;;;;;;;5036502;28;8870;-72
2021/12/28 14:56:42;;;;;;;;;4.00;1.00;;;;;;;;5040048;28;8873;-74
2021/12/28 14:59:16;;;;;;;;;1.00;1.00;;;;;;;;5040360;28;8915;-74
2021/12/28 15:01:44;;;;;;;;;1.00;1.00;;;;;;;;5037740;28;8843;-74
2021/12/28 15:04:12;;;;;;;;;3.00;3.00;;;;;;;;5035870;28;8888;-73
2021/12/28 15:06:51;;;;;;;;;4.00;1.00;;;;;;;;5036402;28;8862;-77
2021/12/28 15:09:31;;;;;;;;;2.00;0.50;;;;;;;;5042171;28;8919;-73
2021/12/28 15:12:00;;;;;;;;;3.50;1.50;;;;;;;;5039172;28;8865;-73